createdAt,value
2023-02-13T00:00:32.365Z,94.60
2023-02-13T00:03:38.282Z,94.50
2023-02-13T00:06:40.700Z,94.50
2023-02-13T00:09:42.670Z,94.40
2023-02-13T00:12:48.401Z,94.40
2023-02-13T00:16:01.836Z,94.20
2023-02-13T00:19:04.638Z,94.30
2023-02-13T00:22:08.733Z,94.20
2023-02-13T00:25:11.242Z,94.20
2023-02-13T00:28:13.415Z,94.30
2023-02-13T00:31:23.767Z,94.40
2023-02-13T00:34:25.908Z,94.40
2023-02-13T00:37:29.749Z,94.40
2023-02-13T00:40:31.842Z,94.40
2023-02-13T00:43:34.391Z,94.40
2023-02-13T00:46:36.717Z,94.40
2023-02-13T00:49:38.825Z,94.40
2023-02-13T00:52:40.846Z,94.50
2023-02-13T00:55:43.275Z,94.60
2023-02-13T00:58:45.517Z,94.70
2023-02-13T01:01:47.602Z,94.60
2023-02-13T01:04:49.648Z,94.60
2023-02-13T01:07:52.581Z,94.60
2023-02-13T01:10:55.772Z,94.60
2023-02-13T01:13:58.082Z,94.60
2023-02-13T01:17:00.434Z,94.60
2023-02-13T01:20:02.488Z,94.60
2023-02-13T01:23:06.091Z,94.70
2023-02-13T01:26:17.923Z,94.90
2023-02-13T01:29:20.207Z,94.80
2023-02-13T01:32:22.871Z,94.80
2023-02-13T01:35:24.885Z,95.00
2023-02-13T01:38:26.880Z,95.10
2023-02-13T01:41:30.575Z,95.30
2023-02-13T01:44:47.740Z,95.30
2023-02-13T01:47:54.320Z,95.30
2023-02-13T01:51:04.699Z,95.60
2023-02-13T01:54:18.204Z,95.40
2023-02-13T01:57:25.426Z,95.50
2023-02-13T02:00:29.245Z,95.70
2023-02-13T02:03:35.299Z,95.80
2023-02-13T02:06:48.946Z,95.80
2023-02-13T02:09:54.255Z,96.10
2023-02-13T02:13:03.163Z,96.10
2023-02-13T02:16:05.549Z,96.00
2023-02-13T02:19:47.371Z,96.00
2023-02-13T02:23:04.048Z,96.10
2023-02-13T02:26:20.839Z,96.10
2023-02-13T02:29:49.825Z,96.20
2023-02-13T02:33:33.386Z,96.30
2023-02-13T02:36:58.518Z,96.20
2023-02-13T02:40:12.430Z,96.30
2023-02-13T02:43:23.482Z,96.30
2023-02-13T02:46:36.372Z,96.10
2023-02-13T02:50:02.432Z,96.30
2023-02-13T02:53:29.968Z,96.30
2023-02-13T02:56:40.919Z,96.30
2023-02-13T03:00:03.412Z,96.30
2023-02-13T03:03:40.344Z,96.30
2023-02-13T03:06:54.301Z,96.40
2023-02-13T03:10:27.816Z,96.50
2023-02-13T03:13:43.972Z,96.30
2023-02-13T03:17:05.402Z,96.40
2023-02-13T03:20:52.807Z,96.30
2023-02-13T03:24:23.001Z,96.40
2023-02-13T03:27:44.949Z,96.30
2023-02-13T03:30:50.237Z,96.40
2023-02-13T03:34:04.206Z,96.40
2023-02-13T03:37:29.879Z,96.30
2023-02-13T03:40:36.762Z,96.40
2023-02-13T03:44:04.230Z,96.60
2023-02-13T03:47:08.155Z,96.60
2023-02-13T03:50:13.414Z,96.80
2023-02-13T03:53:20.951Z,96.80
2023-02-13T03:56:44.550Z,96.70
2023-02-13T03:59:47.212Z,97.10
2023-02-13T04:03:01.358Z,96.90
2023-02-13T04:06:09.701Z,97.00
2023-02-13T04:09:11.910Z,97.00
2023-02-13T04:12:25.538Z,96.80
2023-02-13T04:15:39.076Z,97.10
2023-02-13T04:18:42.564Z,97.30
2023-02-13T04:21:44.809Z,97.40
2023-02-13T04:24:47.318Z,97.60
2023-02-13T04:27:49.561Z,97.70
2023-02-13T04:30:51.957Z,97.80
2023-02-13T04:33:54.119Z,97.90
2023-02-13T04:36:56.140Z,97.80
2023-02-13T04:39:58.164Z,97.90
2023-02-13T04:43:01.315Z,98.40
2023-02-13T04:46:04.823Z,98.20
2023-02-13T04:49:06.933Z,98.20
2023-02-13T04:52:09.069Z,98.60
2023-02-13T04:55:11.579Z,99.10
2023-02-13T04:58:13.951Z,99.00
2023-02-13T05:01:17.214Z,99.10
2023-02-13T05:04:20.495Z,99.20
2023-02-13T05:07:23.516Z,99.20
2023-02-13T05:10:27.051Z,99.30
2023-02-13T05:13:29.101Z,99.30
2023-02-13T05:16:32.426Z,99.30
2023-02-13T05:19:36.244Z,99.40
2023-02-13T05:23:01.887Z,99.30
2023-02-13T05:26:03.944Z,99.50
2023-02-13T05:29:19.041Z,99.40
2023-02-13T05:32:21.046Z,99.50
2023-02-13T05:35:23.496Z,99.50
2023-02-13T05:38:25.527Z,99.60
2023-02-13T05:41:27.655Z,99.60
2023-02-13T05:44:29.686Z,99.60
2023-02-13T05:47:31.728Z,99.70
2023-02-13T05:50:33.783Z,99.80
2023-02-13T05:53:36.220Z,99.90
2023-02-13T05:56:38.357Z,99.80
2023-02-13T05:59:40.409Z,99.90
2023-02-13T06:02:42.886Z,99.90
2023-02-13T06:05:45.176Z,99.90
2023-02-13T06:08:47.392Z,99.90
2023-02-13T06:11:50.384Z,99.90
2023-02-13T06:14:52.636Z,99.90
2023-02-13T06:17:54.701Z,99.90
2023-02-13T06:20:57.080Z,99.90
2023-02-13T06:24:00.466Z,99.90
2023-02-13T06:27:02.453Z,99.90
2023-02-13T06:30:04.694Z,99.90
2023-02-13T06:33:06.853Z,99.90
2023-02-13T06:36:09.001Z,99.90
2023-02-13T06:39:12.434Z,99.90
2023-02-13T06:42:14.511Z,99.90
2023-02-13T06:45:16.678Z,99.90
2023-02-13T06:48:18.989Z,99.90
2023-02-13T06:51:21.381Z,99.90
2023-02-13T06:54:37.137Z,99.90
2023-02-13T06:57:46.477Z,99.90
2023-02-13T07:00:48.868Z,99.90
2023-02-13T07:03:50.958Z,99.90
2023-02-13T07:06:57.091Z,99.90
2023-02-13T07:10:00.222Z,99.90
2023-02-13T07:13:05.984Z,99.90
2023-02-13T07:16:10.224Z,99.90
2023-02-13T07:19:12.336Z,99.90
2023-02-13T07:22:14.404Z,99.90
2023-02-13T07:25:16.664Z,99.90
2023-02-13T07:28:19.125Z,99.90
2023-02-13T07:31:21.399Z,99.90
2023-02-13T07:34:23.415Z,99.90
2023-02-13T07:37:27.417Z,99.90
2023-02-13T07:40:29.620Z,99.90
2023-02-13T07:43:32.043Z,99.90
2023-02-13T07:46:34.203Z,99.80
2023-02-13T07:49:37.117Z,99.90
2023-02-13T07:52:39.301Z,99.50
2023-02-13T07:55:41.424Z,99.20
2023-02-13T07:58:44.885Z,98.80
2023-02-13T08:01:47.066Z,98.70
2023-02-13T08:04:49.145Z,98.50
2023-02-13T08:07:51.366Z,98.40
2023-02-13T08:11:12.519Z,98.30
2023-02-13T08:14:14.501Z,98.40
2023-02-13T08:17:16.611Z,98.20
2023-02-13T08:20:19.013Z,98.30
2023-02-13T08:23:21.232Z,98.10
2023-02-13T08:26:23.504Z,98.00
2023-02-13T08:29:25.561Z,97.90
2023-02-13T08:32:27.838Z,97.80
2023-02-13T08:35:31.702Z,97.80
2023-02-13T08:38:34.402Z,97.30
2023-02-13T08:41:36.786Z,97.30
2023-02-13T08:44:41.179Z,96.70
2023-02-13T08:47:43.251Z,96.20
2023-02-13T08:50:45.465Z,95.70
2023-02-13T08:53:47.610Z,95.00
2023-02-13T08:56:49.673Z,94.20
2023-02-13T08:59:51.894Z,93.90
2023-02-13T09:02:54.122Z,93.80
2023-02-13T09:06:00.583Z,93.50
2023-02-13T09:09:05.684Z,93.30
2023-02-13T09:12:08.284Z,93.40
2023-02-13T09:15:10.759Z,92.90
2023-02-13T09:18:13.954Z,93.30
2023-02-13T09:21:16.973Z,92.40
2023-02-13T09:24:18.984Z,92.50
2023-02-13T09:27:22.148Z,92.10
2023-02-13T09:30:24.707Z,91.70
2023-02-13T09:33:29.172Z,92.10
2023-02-13T09:36:31.217Z,91.70
2023-02-13T09:39:33.239Z,92.00
2023-02-13T09:42:37.181Z,90.70
2023-02-13T09:45:39.868Z,90.90
2023-02-13T09:48:45.629Z,90.50
2023-02-13T09:51:56.072Z,89.60
2023-02-13T09:54:58.159Z,90.10
2023-02-13T09:58:21.993Z,89.50
2023-02-13T10:01:37.914Z,84.80
2023-02-13T10:04:49.020Z,81.80
2023-02-13T10:07:57.054Z,80.70
2023-02-13T10:11:07.931Z,82.90
2023-02-13T10:14:18.299Z,83.30
2023-02-13T10:17:45.472Z,83.70
2023-02-13T10:21:02.385Z,82.80
2023-02-13T10:24:27.724Z,82.70
2023-02-13T10:27:36.286Z,81.50
2023-02-13T10:30:52.196Z,81.90
2023-02-13T10:34:02.922Z,81.30
2023-02-13T10:37:13.941Z,80.30
2023-02-13T10:40:16.081Z,79.30
2023-02-13T10:43:21.351Z,79.40
2023-02-13T10:46:34.095Z,78.60
2023-02-13T10:49:57.415Z,77.70
2023-02-13T10:53:43.318Z,75.90
2023-02-13T10:57:16.546Z,75.20
2023-02-13T11:00:45.841Z,75.40
2023-02-13T11:04:00.424Z,76.80
2023-02-13T11:07:04.900Z,74.00
2023-02-13T11:10:17.957Z,75.80
2023-02-13T11:13:26.275Z,75.80
2023-02-13T11:16:48.832Z,77.70
2023-02-13T11:19:59.713Z,74.90
2023-02-13T11:23:29.724Z,73.80
2023-02-13T11:26:37.128Z,73.90
2023-02-13T11:29:57.091Z,72.20
2023-02-13T11:33:04.143Z,73.70
2023-02-13T11:36:16.100Z,75.30
2023-02-13T11:39:25.155Z,77.60
2023-02-13T11:42:37.236Z,78.40
2023-02-13T11:45:39.560Z,78.10
2023-02-13T11:48:43.105Z,78.60
2023-02-13T11:51:48.775Z,79.40
2023-02-13T11:55:05.188Z,79.60
2023-02-13T11:58:16.795Z,79.30
2023-02-13T12:01:26.871Z,81.10
2023-02-13T12:04:29.339Z,80.10
2023-02-13T12:07:33.587Z,79.50
2023-02-13T12:10:38.724Z,79.10
2023-02-13T12:13:42.197Z,79.90
2023-02-13T12:16:51.263Z,80.80
2023-02-13T12:19:55.974Z,81.20
2023-02-13T12:23:20.078Z,81.20
2023-02-13T12:26:38.219Z,81.40
2023-02-13T12:30:05.974Z,80.50
2023-02-13T12:33:16.776Z,80.40
2023-02-13T12:36:36.124Z,80.20
2023-02-13T12:39:46.054Z,80.90
2023-02-13T12:43:12.769Z,79.20
2023-02-13T12:46:40.081Z,79.40
2023-02-13T12:49:45.129Z,80.40
2023-02-13T12:52:59.676Z,81.00
2023-02-13T12:56:18.723Z,81.60
2023-02-13T12:59:37.055Z,80.80
2023-02-13T13:02:45.196Z,81.70
2023-02-13T13:06:12.951Z,82.00
2023-02-13T13:09:28.488Z,80.60
2023-02-13T13:13:01.327Z,80.40
2023-02-13T13:16:35.945Z,80.30
2023-02-13T13:19:38.177Z,80.10
2023-02-13T13:22:53.727Z,80.00
2023-02-13T13:25:55.798Z,79.90
2023-02-13T13:29:01.233Z,80.50
2023-02-13T13:32:07.661Z,80.00
2023-02-13T13:35:15.311Z,80.30
2023-02-13T13:38:25.538Z,79.60
2023-02-13T13:41:48.823Z,79.80
2023-02-13T13:44:50.748Z,79.90
2023-02-13T13:48:06.396Z,80.80
2023-02-13T13:51:14.189Z,82.10
2023-02-13T13:54:23.843Z,81.20
2023-02-13T13:57:27.731Z,81.60
2023-02-13T14:00:30.867Z,81.20
2023-02-13T14:03:37.111Z,81.30
2023-02-13T14:06:44.964Z,81.60
2023-02-13T14:09:47.046Z,81.30
2023-02-13T14:12:59.896Z,81.40
2023-02-13T14:16:03.296Z,82.20
2023-02-13T14:19:23.022Z,82.00
2023-02-13T14:22:28.064Z,81.30
2023-02-13T14:25:32.611Z,81.10
2023-02-13T14:28:36.032Z,80.60
2023-02-13T14:31:44.161Z,81.10
2023-02-13T14:35:01.212Z,80.80
2023-02-13T14:38:08.180Z,81.20
2023-02-13T14:41:49.400Z,81.40
2023-02-13T14:45:04.355Z,81.40
2023-02-13T14:48:12.786Z,81.70
2023-02-13T14:51:45.205Z,82.30
2023-02-13T14:54:54.579Z,81.30
2023-02-13T14:58:28.097Z,81.40
2023-02-13T15:01:50.194Z,81.70
2023-02-13T15:05:02.086Z,81.40
2023-02-13T15:08:24.197Z,81.80
2023-02-13T15:11:38.502Z,81.60
2023-02-13T15:14:40.846Z,82.40
2023-02-13T15:17:42.948Z,82.00
2023-02-13T15:20:46.326Z,82.00
2023-02-13T15:23:55.554Z,82.30
2023-02-13T15:27:02.389Z,82.10
2023-02-13T15:30:20.514Z,82.10
2023-02-13T15:33:24.601Z,81.60
2023-02-13T15:36:34.730Z,81.50
2023-02-13T15:39:36.734Z,81.40
2023-02-13T15:42:39.988Z,81.50
2023-02-13T15:45:44.464Z,81.70
2023-02-13T15:48:47.017Z,82.10
2023-02-13T15:51:50.366Z,82.30
2023-02-13T15:54:55.020Z,82.00
2023-02-13T15:57:59.514Z,82.00
2023-02-13T16:01:05.988Z,81.20
2023-02-13T16:04:12.607Z,81.60
2023-02-13T16:07:15.078Z,81.70
2023-02-13T16:10:35.303Z,82.10
2023-02-13T16:13:37.443Z,82.70
2023-02-13T16:17:05.062Z,82.80
2023-02-13T16:20:09.094Z,82.90
2023-02-13T16:23:21.537Z,83.10
2023-02-13T16:26:24.140Z,83.00
2023-02-13T16:29:27.691Z,83.20
2023-02-13T16:32:38.958Z,82.90
2023-02-13T16:35:49.204Z,83.00
2023-02-13T16:38:51.488Z,83.20
2023-02-13T16:41:54.875Z,83.10
2023-02-13T16:45:23.969Z,83.30
2023-02-13T16:48:26.554Z,83.60
2023-02-13T16:51:37.437Z,83.60
2023-02-13T16:54:55.901Z,83.70
2023-02-13T16:58:05.156Z,83.60
2023-02-13T17:01:07.389Z,83.60
2023-02-13T17:04:23.887Z,83.40
2023-02-13T17:07:29.056Z,83.40
2023-02-13T17:10:34.546Z,83.30
2023-02-13T17:13:37.680Z,82.80
2023-02-13T17:16:40.056Z,83.10
2023-02-13T17:19:44.565Z,82.80
2023-02-13T17:22:53.131Z,82.80
2023-02-13T17:25:55.637Z,82.40
2023-02-13T17:28:58.274Z,82.60
2023-02-13T17:32:00.827Z,82.90
2023-02-13T17:35:03.123Z,83.30
2023-02-13T17:38:06.531Z,83.70
2023-02-13T17:41:17.661Z,83.80
2023-02-13T17:44:19.747Z,83.60
2023-02-13T17:47:22.439Z,83.90
2023-02-13T17:50:28.970Z,84.20
2023-02-13T17:53:31.646Z,84.40
2023-02-13T17:56:33.676Z,84.70
2023-02-13T17:59:35.693Z,85.10
2023-02-13T18:02:37.744Z,85.30
2023-02-13T18:05:48.228Z,85.50
2023-02-13T18:08:50.434Z,85.80
2023-02-13T18:12:04.884Z,86.10
2023-02-13T18:15:08.000Z,86.40
2023-02-13T18:18:12.066Z,86.60
2023-02-13T18:21:14.086Z,86.70
2023-02-13T18:24:16.140Z,87.10
2023-02-13T18:27:18.350Z,87.30
2023-02-13T18:30:21.084Z,87.30
2023-02-13T18:33:28.010Z,87.50
2023-02-13T18:36:30.372Z,87.70
2023-02-13T18:39:34.390Z,87.50
2023-02-13T18:42:36.519Z,87.80
2023-02-13T18:45:39.053Z,88.00
2023-02-13T18:48:41.108Z,87.90
2023-02-13T18:51:44.543Z,87.80
2023-02-13T18:54:46.515Z,87.80
2023-02-13T18:57:52.657Z,88.00
2023-02-13T19:00:54.838Z,87.70
2023-02-13T19:03:57.337Z,87.50
2023-02-13T19:06:59.414Z,87.50
2023-02-13T19:10:01.499Z,87.50
2023-02-13T19:13:03.637Z,87.60
2023-02-13T19:16:12.499Z,87.60
2023-02-13T19:19:14.558Z,87.60
2023-02-13T19:22:16.719Z,87.40
2023-02-13T19:25:19.200Z,87.40
2023-02-13T19:28:21.686Z,87.20
2023-02-13T19:31:27.091Z,87.30
2023-02-13T19:34:29.723Z,87.40
2023-02-13T19:37:43.056Z,87.50
2023-02-13T19:40:46.137Z,88.00
2023-02-13T19:43:51.412Z,88.30
2023-02-13T19:46:53.593Z,88.60
2023-02-13T19:49:55.725Z,89.10
2023-02-13T19:52:58.076Z,89.30
2023-02-13T19:56:00.459Z,90.00
2023-02-13T19:59:03.034Z,90.00
2023-02-13T20:02:05.139Z,90.10
2023-02-13T20:05:08.913Z,90.10
2023-02-13T20:08:11.277Z,90.10
2023-02-13T20:11:15.162Z,90.20
2023-02-13T20:14:17.480Z,90.20
2023-02-13T20:17:19.743Z,90.30
2023-02-13T20:20:22.012Z,90.40
2023-02-13T20:23:24.300Z,90.50
2023-02-13T20:26:26.352Z,90.40
2023-02-13T20:29:28.461Z,90.50
2023-02-13T20:32:30.854Z,90.60
2023-02-13T20:35:32.976Z,90.50
2023-02-13T20:38:35.347Z,90.80
2023-02-13T20:41:38.464Z,90.90
2023-02-13T20:44:40.474Z,90.80
2023-02-13T20:47:43.076Z,90.70
2023-02-13T20:50:45.450Z,91.20
2023-02-13T20:53:48.489Z,90.80
2023-02-13T20:56:50.938Z,90.80
2023-02-13T20:59:53.203Z,90.90
2023-02-13T21:02:55.200Z,91.00
2023-02-13T21:05:57.301Z,91.00
2023-02-13T21:08:59.950Z,91.00
2023-02-13T21:12:02.264Z,90.90
2023-02-13T21:15:04.374Z,90.70
2023-02-13T21:18:06.476Z,90.50
2023-02-13T21:21:10.708Z,90.60
2023-02-13T21:24:16.886Z,90.60
2023-02-13T21:27:19.119Z,90.70
2023-02-13T21:30:21.805Z,90.70
2023-02-13T21:33:24.720Z,90.80
2023-02-13T21:36:27.203Z,90.80
2023-02-13T21:39:30.349Z,90.80
2023-02-13T21:42:34.581Z,90.70
2023-02-13T21:45:36.636Z,90.70
2023-02-13T21:48:41.436Z,90.80
2023-02-13T21:51:43.540Z,90.70
2023-02-13T21:54:47.948Z,91.00
2023-02-13T21:57:50.312Z,91.10
2023-02-13T22:00:52.388Z,91.20
2023-02-13T22:04:02.904Z,91.30
2023-02-13T22:07:04.988Z,91.40
2023-02-13T22:10:07.708Z,91.40
2023-02-13T22:13:09.738Z,91.30
2023-02-13T22:16:14.229Z,91.30
2023-02-13T22:19:16.646Z,91.70
2023-02-13T22:22:18.671Z,91.50
2023-02-13T22:25:20.739Z,91.50
2023-02-13T22:28:22.777Z,91.50
2023-02-13T22:31:26.233Z,91.50
2023-02-13T22:34:28.812Z,91.60
2023-02-13T22:37:31.152Z,91.60
2023-02-13T22:40:34.983Z,91.70
2023-02-13T22:43:38.120Z,91.80
2023-02-13T22:46:40.335Z,92.00
2023-02-13T22:49:43.498Z,92.00
2023-02-13T22:52:45.647Z,92.00
2023-02-13T22:55:47.712Z,92.00
2023-02-13T22:58:49.799Z,92.00
2023-02-13T23:01:51.984Z,92.00
2023-02-13T23:04:54.169Z,91.90
2023-02-13T23:07:56.217Z,91.80
2023-02-13T23:11:16.760Z,91.70
2023-02-13T23:14:22.214Z,91.60
2023-02-13T23:17:42.991Z,91.60
2023-02-13T23:20:45.411Z,91.60
2023-02-13T23:23:49.899Z,91.50
2023-02-13T23:26:52.271Z,91.40
2023-02-13T23:29:54.668Z,91.40
2023-02-13T23:32:58.767Z,91.50
2023-02-13T23:36:00.890Z,91.40
2023-02-13T23:39:03.224Z,91.50
2023-02-13T23:42:05.349Z,91.50
2023-02-13T23:45:08.804Z,91.60
2023-02-13T23:48:12.892Z,91.60
2023-02-13T23:51:14.955Z,91.70
2023-02-13T23:54:22.757Z,91.80
2023-02-13T23:57:24.872Z,91.80
